Nearby METAR Reports

 

KFMY - Fort Myers, Florida, USA
Distance from station: N 41mi, 66km
Updated: 2018-01-20 06:53
Mostly cloudy
Mostly cloudy
 Wind from N
Wind: N 7 mph , 11 km/h
Temperature: 55°F , 13°C
Dew Point: 52°F , 11°C
Humidity: 88%
Barometer: 30.24 inHg , 1024 hPa
Clouds: Mostly cloudy
Visibility: 9 miles , 14 km
Cloud details: Mostly cloudy 3300 ft
2018/01/20 11:53 KFMY 201153Z AUTO 01006KT 9SM BKN033 13/11 A3024 RMK AO2 SLP243 T01330111 10133 20122 53012 $
KRSW - Fort Myers, Florida, USA
Distance from station: NNE 40mi, 64km
Updated: 2018-01-20 06:53
Few Clouds
Few Clouds
 Wind from N
Wind: N 5 mph , 7 km/h
Temperature: 54°F , 12°C
Dew Point: 52°F , 11°C
Humidity: 94%
Barometer: 30.25 inHg , 1024.4 hPa
Clouds: Few Clouds
Visibility: 10 miles , 16 km
Cloud details: Few Clouds 3300 ft
2018/01/20 11:53 KRSW 201153Z 36004KT 10SM FEW033 12/11 A3025 RMK AO2 SLP239 T01220111 10122 20117 53006
 
KAPF - Naples Municipal, Florida, USA
Distance from station: NE 18mi, 29km
Updated: 2018-01-20 06:53
Clear
Clear
 Wind from N
Wind: N 6 mph , 9 km/h
Temperature: 57°F , 14°C
Dew Point: 54°F , 12°C
Humidity: 88%
Barometer: 30.22 inHg , 1023.4 hPa
Clouds: Clear
Visibility: 10 miles , 16 km
2018/01/20 11:53 KAPF 201153Z 01005KT 10SM CLR 14/12 A3022 RMK AO2 SLP232 T01390117 10139 20128 53003
KMKY - Marco Island, Florida, USA
Distance from station: E 21mi, 33km
Updated: 2018-01-20 06:56
Clear
Clear
 Wind from NNE
Wind: NNE 7 mph , 11 km/h
Temperature: 55°F , 13°C
Dew Point: 54°F , 12°C
Humidity: 94%
Barometer: 30.21 inHg , 1023 hPa
Clouds: Clear
Visibility: 10 miles , 16 km
2018/01/20 11:56 KMKY 201156Z AUTO 03006KT 10SM CLR 13/12 A3021 RMK AO2 SLP230 T01280117 10133 20128 55003
 
KPGD - Punta Gorda, Florida, USA
Distance from station: 0 63mi, 102km
Updated: 2018-01-20 06:53
Clear
Clear
 Wind from NNE
Wind: NNE 3 mph , 6 km/h
Temperature: 52°F , 11°C
Dew Point: 48°F , 9°C
Humidity: 88%
Barometer: 30.27 inHg , 1025.1 hPa
Clouds: Clear
Visibility: 10 miles , 16 km
2018/01/20 11:53 KPGD 201153Z 03003KT 10SM CLR 11/09 A3027 RMK AO2 SLP250 T01060089 10106 20094 53009
KTMB - Miami/Tamiami, Florida, USA
Distance from station: ESE 100mi, 162km
Updated: 2018-01-20 06:53
Clear
Clear
 Wind from calm
Wind: Calm
Temperature: 57°F , 14°C
Dew Point: 55°F , 13°C
Humidity: 94%
Barometer: 30.20 inHg , 1022.7 hPa
Clouds: Clear
Visibility: 10 miles , 16 km
2018/01/20 11:53 KTMB 201153Z 00000KT 10SM CLR 14/13 A3020 RMK AO2 SLP225 T01390128 10150 20133 53003
 
KEYW - Key West, Florida, USA
Distance from station: S 101mi, 163km
Updated: 2018-01-20 06:53
Clear
Clear
 Wind from NE
Wind: NE 9 mph , 15 km/h
Temperature: 63°F , 17°C
Dew Point: 57°F , 14°C
Humidity: 83%
Barometer: 30.18 inHg , 1022 hPa
Clouds: Clear
Visibility: 10 miles , 16 km
2018/01/20 11:53 KEYW 201153Z 04008KT 10SM CLR 17/14 A3018 RMK AO2 SLP218 T01670144 10172 20167 53004
KSRQ - Sarasota/Bradent, Florida, USA
Distance from station: NNW 103mi, 166km
Updated: 2018-01-20 06:53
Clear
Clear
 Wind from NE
Wind: NE 5 mph , 7 km/h
Temperature: 48°F , 9°C
Wind Chill: 46°F , 8°C
Dew Point: 43°F , 6°C
Humidity: 82%
Barometer: 30.24 inHg , 1024 hPa
Clouds: Clear
Visibility: 10 miles , 16 km
2018/01/20 11:53 KSRQ 201153Z 05004KT 10SM CLR 09/06 A3024 RMK AO2 SLP241 T00890056 10100 20089 51009
 
KMTH - Marathon, Florida, USA
Distance from station: SE 106mi, 170km
Updated: 2018-01-20 06:53
Few Clouds
Few Clouds
 Wind from NNE
Wind: NNE 7 mph , 11 km/h
Temperature: 63°F , 17°C
Dew Point: 57°F , 14°C
Humidity: 83%
Barometer: 30.18 inHg , 1022 hPa
Clouds: Few Clouds
Visibility: 10 miles , 16 km
Cloud details: Few Clouds 4200 ft
2018/01/20 11:53 KMTH 201153Z AUTO 02006KT 10SM FEW042 17/14 A3018 RMK AO2 SLP218 T01670139 10172 20167 53003
KMIA - Miami, Florida, USA
Distance from station: E 108mi, 173km
Updated: 2018-01-20 06:53
Mostly cloudy
Mostly cloudy
 Wind from calm
Wind: Calm
Temperature: 63°F , 17°C
Dew Point: 57°F , 14°C
Humidity: 83%
Barometer: 30.19 inHg , 1022.4 hPa
Clouds: Mostly cloudy
Visibility: 10 miles , 16 km
Cloud details: Partly cloudy 3900 ft
Mostly cloudy 20000 ft
2018/01/20 11:53 KMIA 201153Z 00000KT 10SM SCT039 BKN200 17/14 A3019 RMK AO2 SLP224 T01670139 10183 20167 51001
 
KHST - Homestead Afb, Florida, USA
Distance from station: ESE 108mi, 174km
Updated: 2018-01-20 06:56
Overcast
Overcast
 Wind from NNW
Wind: NNW 5 mph , 7 km/h
Temperature: 59°F , 15°C
Dew Point: 59°F , 15°C
Humidity: 100%
Barometer: 30.19 inHg , 1022.4 hPa
Clouds: Overcast
Visibility: 10 miles , 16 km
Cloud details: Partly cloudy 18000 ft
Overcast 23000 ft
2018/01/20 11:56 KHST 201156Z AUTO 33004KT 10SM SCT180 OVC230 15/15 A3019 RMK AO2 SLP226 T01540154 10159 20148 50004
KOBE - Okeechobee Cty, Florida, USA
Distance from station: NE 113mi, 181km
Updated: 2018-01-20 07:15
Mostly cloudy
Mostly cloudy
 Wind from N
Wind: N 5 mph , 7 km/h
Temperature: 52°F , 11°C
Dew Point: 46°F , 8°C
Humidity: 82%
Barometer: 30.26 inHg , 1024.7 hPa
Clouds: Mostly cloudy
Visibility: 10 miles , 16 km
Cloud details: Mostly cloudy 3900 ft
2018/01/20 12:15 KOBE 201215Z AUTO 36004KT 10SM BKN039 11/08 A3026 RMK AO2